sensor_id;sensor_type;location;lat;lon;timestamp;pressure;altitude;pressure_sealevel;temperature;humidity
37694;BME280;23531;50.122;8.644;2023-05-14T00:00:34;100711.84;;;15.22;nan
37694;BME280;23531;50.122;8.644;2023-05-14T00:02:35;100712.53;;;15.18;nan
37694;BME280;23531;50.122;8.644;2023-05-14T00:04:36;100709.00;;;15.17;nan
37694;BME280;23531;50.122;8.644;2023-05-14T00:06:38;100707.94;;;15.18;nan
37694;BME280;23531;50.122;8.644;2023-05-14T00:08:39;100708.09;;;15.23;nan
37694;BME280;23531;50.122;8.644;2023-05-14T00:10:41;100705.59;;;15.10;nan
37694;BME280;23531;50.122;8.644;2023-05-14T00:12:43;100705.22;;;15.07;nan
37694;BME280;23531;50.122;8.644;2023-05-14T00:14:44;100706.97;;;15.01;nan
37694;BME280;23531;50.122;8.644;2023-05-14T00:16:45;100701.66;;;14.95;nan
37694;BME280;23531;50.122;8.644;2023-05-14T00:18:47;100708.34;;;14.92;nan
37694;BME280;23531;50.122;8.644;2023-05-14T00:20:48;100701.81;;;15.00;nan
37694;BME280;23531;50.122;8.644;2023-05-14T00:22:53;100708.28;;;14.99;nan
37694;BME280;23531;50.122;8.644;2023-05-14T00:24:55;100699.66;;;15.02;nan
37694;BME280;23531;50.122;8.644;2023-05-14T00:26:58;100694.38;;;14.95;nan
37694;BME280;23531;50.122;8.644;2023-05-14T00:28:59;100697.19;;;14.88;nan
37694;BME280;23531;50.122;8.644;2023-05-14T00:31:00;100693.44;;;14.89;nan
37694;BME280;23531;50.122;8.644;2023-05-14T00:33:02;100689.31;;;14.99;nan
37694;BME280;23531;50.122;8.644;2023-05-14T00:35:03;100687.22;;;15.01;nan
37694;BME280;23531;50.122;8.644;2023-05-14T00:37:05;100687.66;;;14.98;nan
37694;BME280;23531;50.122;8.644;2023-05-14T00:39:06;100687.44;;;14.99;nan
37694;BME280;23531;50.122;8.644;2023-05-14T00:41:07;100686.00;;;14.97;nan
37694;BME280;23531;50.122;8.644;2023-05-14T00:43:10;100680.13;;;14.88;nan
37694;BME280;23531;50.122;8.644;2023-05-14T00:45:11;100683.00;;;14.75;nan
37694;BME280;23531;50.122;8.644;2023-05-14T00:47:12;100674.19;;;14.79;nan
37694;BME280;23531;50.122;8.644;2023-05-14T00:49:13;100678.69;;;14.85;nan
37694;BME280;23531;50.122;8.644;2023-05-14T00:51:15;100678.47;;;14.87;nan
37694;BME280;23531;50.122;8.644;2023-05-14T00:53:16;100679.03;;;14.77;nan
37694;BME280;23531;50.122;8.644;2023-05-14T00:55:18;100676.59;;;14.58;nan
37694;BME280;23531;50.122;8.644;2023-05-14T00:57:19;100677.97;;;14.48;nan
37694;BME280;23531;50.122;8.644;2023-05-14T00:59:22;100682.47;;;14.55;nan
37694;BME280;23531;50.122;8.644;2023-05-14T01:01:23;100679.19;;;14.52;nan
37694;BME280;23531;50.122;8.644;2023-05-14T01:03:27;100675.03;;;14.50;nan
37694;BME280;23531;50.122;8.644;2023-05-14T01:05:31;100672.47;;;14.55;nan
37694;BME280;23531;50.122;8.644;2023-05-14T01:07:38;100674.72;;;14.58;nan
37694;BME280;23531;50.122;8.644;2023-05-14T01:09:41;100676.81;;;14.56;nan
37694;BME280;23531;50.122;8.644;2023-05-14T01:11:47;100673.19;;;14.62;nan
37694;BME280;23531;50.122;8.644;2023-05-14T01:14:06;100674.63;;;14.65;nan
37694;BME280;23531;50.122;8.644;2023-05-14T01:16:13;100673.88;;;14.58;nan
37694;BME280;23531;50.122;8.644;2023-05-14T01:18:17;100676.47;;;14.52;nan
37694;BME280;23531;50.122;8.644;2023-05-14T01:20:18;100672.66;;;14.42;nan
37694;BME280;23531;50.122;8.644;2023-05-14T01:22:21;100670.19;;;14.40;nan
37694;BME280;23531;50.122;8.644;2023-05-14T01:24:23;100668.00;;;14.31;nan
37694;BME280;23531;50.122;8.644;2023-05-14T01:26:24;100663.75;;;14.35;nan
37694;BME280;23531;50.122;8.644;2023-05-14T01:28:27;100660.50;;;14.33;nan
37694;BME280;23531;50.122;8.644;2023-05-14T01:30:33;100659.31;;;14.10;nan
37694;BME280;23531;50.122;8.644;2023-05-14T01:32:35;100661.78;;;14.12;nan
37694;BME280;23531;50.122;8.644;2023-05-14T01:34:37;100662.47;;;14.07;nan
37694;BME280;23531;50.122;8.644;2023-05-14T01:36:40;100664.56;;;14.05;nan
37694;BME280;23531;50.122;8.644;2023-05-14T01:38:43;100662.03;;;13.92;nan
37694;BME280;23531;50.122;8.644;2023-05-14T01:40:46;100669.00;;;13.81;nan
37694;BME280;23531;50.122;8.644;2023-05-14T01:42:48;100666.59;;;13.92;nan
37694;BME280;23531;50.122;8.644;2023-05-14T01:44:50;100660.53;;;13.96;nan
37694;BME280;23531;50.122;8.644;2023-05-14T01:46:52;100670.00;;;13.87;nan
37694;BME280;23531;50.122;8.644;2023-05-14T01:48:53;100666.31;;;13.81;nan
37694;BME280;23531;50.122;8.644;2023-05-14T01:50:54;100665.88;;;13.85;nan
37694;BME280;23531;50.122;8.644;2023-05-14T01:52:55;100656.47;;;13.87;nan
37694;BME280;23531;50.122;8.644;2023-05-14T01:54:58;100664.59;;;13.87;nan
37694;BME280;23531;50.122;8.644;2023-05-14T01:56:59;100669.69;;;13.95;nan
37694;BME280;23531;50.122;8.644;2023-05-14T01:59:00;100663.69;;;13.93;nan
37694;BME280;23531;50.122;8.644;2023-05-14T02:01:04;100665.78;;;13.91;nan
37694;BME280;23531;50.122;8.644;2023-05-14T02:14:00;100653.09;;;13.73;70.23
37694;BME280;23531;50.122;8.644;2023-05-14T02:16:01;100652.19;;;13.79;70.30
37694;BME280;23531;50.122;8.644;2023-05-14T02:18:03;100646.94;;;13.85;69.97
37694;BME280;23531;50.122;8.644;2023-05-14T02:20:04;100653.63;;;13.82;69.86
37694;BME280;23531;50.122;8.644;2023-05-14T02:22:06;100653.16;;;13.67;70.19
37694;BME280;23531;50.122;8.644;2023-05-14T02:24:08;100654.94;;;13.55;70.87
37694;BME280;23531;50.122;8.644;2023-05-14T02:26:09;100646.91;;;13.66;70.70
37694;BME280;23531;50.122;8.644;2023-05-14T02:28:10;100658.56;;;13.67;70.57
37694;BME280;23531;50.122;8.644;2023-05-14T02:30:13;100647.91;;;13.72;70.50
37694;BME280;23531;50.122;8.644;2023-05-14T02:32:14;100651.34;;;13.79;70.08
37694;BME280;23531;50.122;8.644;2023-05-14T02:34:15;100640.53;;;13.79;69.69
37694;BME280;23531;50.122;8.644;2023-05-14T02:36:16;100642.41;;;13.78;69.47
37694;BME280;23531;50.122;8.644;2023-05-14T02:38:18;100635.97;;;13.79;69.48
37694;BME280;23531;50.122;8.644;2023-05-14T02:40:19;100636.72;;;13.68;69.70
37694;BME280;23531;50.122;8.644;2023-05-14T02:42:21;100635.66;;;13.69;69.91
37694;BME280;23531;50.122;8.644;2023-05-14T02:44:22;100631.91;;;13.70;69.64
37694;BME280;23531;50.122;8.644;2023-05-14T02:46:24;100636.94;;;13.67;69.64
37694;BME280;23531;50.122;8.644;2023-05-14T02:48:26;100637.84;;;13.61;69.73
37694;BME280;23531;50.122;8.644;2023-05-14T02:50:27;100638.59;;;13.68;69.86
37694;BME280;23531;50.122;8.644;2023-05-14T02:52:28;100637.31;;;13.70;69.35
37694;BME280;23531;50.122;8.644;2023-05-14T02:54:29;100641.13;;;13.26;70.86
37694;BME280;23531;50.122;8.644;2023-05-14T02:56:31;100637.31;;;13.09;71.96
37694;BME280;23531;50.122;8.644;2023-05-14T02:58:32;100639.06;;;12.97;72.07
37694;BME280;23531;50.122;8.644;2023-05-14T03:00:33;100642.13;;;13.00;72.52
37694;BME280;23531;50.122;8.644;2023-05-14T03:02:36;100634.13;;;13.12;72.38
37694;BME280;23531;50.122;8.644;2023-05-14T03:04:37;100634.09;;;12.94;72.99
37694;BME280;23531;50.122;8.644;2023-05-14T03:06:38;100639.94;;;12.91;73.59
37694;BME280;23531;50.122;8.644;2023-05-14T03:08:40;100642.72;;;12.78;73.76
37694;BME280;23531;50.122;8.644;2023-05-14T03:10:41;100638.38;;;12.77;73.88
37694;BME280;23531;50.122;8.644;2023-05-14T03:12:42;100639.66;;;12.74;74.49
37694;BME280;23531;50.122;8.644;2023-05-14T03:14:44;100642.44;;;12.61;75.06
37694;BME280;23531;50.122;8.644;2023-05-14T03:16:45;100643.22;;;12.68;75.31
37694;BME280;23531;50.122;8.644;2023-05-14T03:18:47;100648.00;;;12.66;74.75
37694;BME280;23531;50.122;8.644;2023-05-14T03:20:49;100637.88;;;12.61;75.15
37694;BME280;23531;50.122;8.644;2023-05-14T03:22:50;100636.91;;;12.49;75.38
37694;BME280;23531;50.122;8.644;2023-05-14T03:24:52;100630.03;;;12.53;75.67
37694;BME280;23531;50.122;8.644;2023-05-14T03:26:53;100633.19;;;12.50;75.69
37694;BME280;23531;50.122;8.644;2023-05-14T03:28:54;100628.00;;;12.49;75.11
37694;BME280;23531;50.122;8.644;2023-05-14T03:30:55;100635.25;;;12.48;75.67
37694;BME280;23531;50.122;8.644;2023-05-14T03:32:57;100633.34;;;12.55;75.65
37694;BME280;23531;50.122;8.644;2023-05-14T03:35:00;100639.47;;;12.69;75.83
37694;BME280;23531;50.122;8.644;2023-05-14T03:37:01;100627.66;;;12.95;74.74
37694;BME280;23531;50.122;8.644;2023-05-14T03:39:03;100633.00;;;13.01;73.94
37694;BME280;23531;50.122;8.644;2023-05-14T03:41:05;100630.97;;;12.97;74.12
37694;BME280;23531;50.122;8.644;2023-05-14T03:43:07;100630.78;;;12.92;74.04
37694;BME280;23531;50.122;8.644;2023-05-14T03:45:08;100635.22;;;12.86;73.69
37694;BME280;23531;50.122;8.644;2023-05-14T03:47:09;100628.59;;;12.82;74.45
37694;BME280;23531;50.122;8.644;2023-05-14T03:49:11;100634.44;;;13.04;73.95
37694;BME280;23531;50.122;8.644;2023-05-14T03:51:14;100630.47;;;13.06;73.59
37694;BME280;23531;50.122;8.644;2023-05-14T03:53:15;100631.41;;;12.94;73.29
37694;BME280;23531;50.122;8.644;2023-05-14T03:55:17;100633.91;;;12.89;73.66
37694;BME280;23531;50.122;8.644;2023-05-14T03:57:18;100635.59;;;12.90;73.34
37694;BME280;23531;50.122;8.644;2023-05-14T03:59:20;100629.00;;;12.86;73.63
37694;BME280;23531;50.122;8.644;2023-05-14T04:01:21;100632.75;;;12.78;73.19
37694;BME280;23531;50.122;8.644;2023-05-14T04:03:22;100626.41;;;12.97;73.77
37694;BME280;23531;50.122;8.644;2023-05-14T04:05:23;100635.78;;;13.13;73.12
37694;BME280;23531;50.122;8.644;2023-05-14T04:07:26;100633.66;;;13.22;72.39
37694;BME280;23531;50.122;8.644;2023-05-14T04:09:27;100634.78;;;13.14;72.49
37694;BME280;23531;50.122;8.644;2023-05-14T04:11:28;100633.09;;;13.20;72.18
37694;BME280;23531;50.122;8.644;2023-05-14T04:13:29;100637.06;;;13.17;72.28
37694;BME280;23531;50.122;8.644;2023-05-14T04:15:31;100637.88;;;13.18;71.65
37694;BME280;23531;50.122;8.644;2023-05-14T04:17:32;100634.50;;;13.22;71.71
37694;BME280;23531;50.122;8.644;2023-05-14T04:19:33;100637.06;;;13.17;71.67
37694;BME280;23531;50.122;8.644;2023-05-14T04:21:34;100644.53;;;13.15;71.75
37694;BME280;23531;50.122;8.644;2023-05-14T04:23:37;100642.72;;;13.09;71.75
37694;BME280;23531;50.122;8.644;2023-05-14T04:25:38;100641.47;;;13.05;71.87
37694;BME280;23531;50.122;8.644;2023-05-14T04:27:40;100636.31;;;13.03;71.71
37694;BME280;23531;50.122;8.644;2023-05-14T04:29:41;100643.13;;;13.06;71.79
37694;BME280;23531;50.122;8.644;2023-05-14T04:31:43;100640.44;;;13.06;72.05
37694;BME280;23531;50.122;8.644;2023-05-14T04:33:44;100650.19;;;13.07;71.73
37694;BME280;23531;50.122;8.644;2023-05-14T04:35:45;100645.00;;;13.05;71.85
37694;BME280;23531;50.122;8.644;2023-05-14T04:37:47;100645.84;;;13.06;71.59
37694;BME280;23531;50.122;8.644;2023-05-14T04:39:50;100650.13;;;13.14;71.79
37694;BME280;23531;50.122;8.644;2023-05-14T04:41:51;100645.97;;;13.18;71.37
37694;BME280;23531;50.122;8.644;2023-05-14T04:43:54;100642.44;;;13.17;71.49
37694;BME280;23531;50.122;8.644;2023-05-14T04:45:55;100647.25;;;13.15;71.16
37694;BME280;23531;50.122;8.644;2023-05-14T04:47:56;100648.47;;;13.19;71.20
37694;BME280;23531;50.122;8.644;2023-05-14T04:49:58;100654.22;;;13.23;71.27
37694;BME280;23531;50.122;8.644;2023-05-14T04:51:59;100652.81;;;13.20;71.43
37694;BME280;23531;50.122;8.644;2023-05-14T04:54:00;100653.19;;;13.24;70.99
37694;BME280;23531;50.122;8.644;2023-05-14T04:56:03;100649.00;;;13.28;70.92
37694;BME280;23531;50.122;8.644;2023-05-14T04:58:05;100653.56;;;13.27;71.14
37694;BME280;23531;50.122;8.644;2023-05-14T05:00:07;100657.50;;;13.31;71.11
37694;BME280;23531;50.122;8.644;2023-05-14T05:02:09;100661.25;;;13.30;70.76
37694;BME280;23531;50.122;8.644;2023-05-14T05:04:10;100658.16;;;13.27;70.96
37694;BME280;23531;50.122;8.644;2023-05-14T05:06:11;100657.94;;;13.28;70.81
37694;BME280;23531;50.122;8.644;2023-05-14T05:08:12;100658.16;;;13.27;70.99
37694;BME280;23531;50.122;8.644;2023-05-14T05:10:14;100646.91;;;13.30;71.21
37694;BME280;23531;50.122;8.644;2023-05-14T05:12:16;100650.69;;;13.22;71.30
37694;BME280;23531;50.122;8.644;2023-05-14T05:14:17;100656.28;;;13.27;71.37
37694;BME280;23531;50.122;8.644;2023-05-14T05:16:19;100652.75;;;13.27;71.11
37694;BME280;23531;50.122;8.644;2023-05-14T05:18:20;100660.19;;;13.31;71.10
37694;BME280;23531;50.122;8.644;2023-05-14T05:20:21;100657.50;;;13.31;71.08
37694;BME280;23531;50.122;8.644;2023-05-14T05:22:23;100654.53;;;13.08;71.39
37694;BME280;23531;50.122;8.644;2023-05-14T05:24:25;100659.19;;;13.26;71.61
37694;BME280;23531;50.122;8.644;2023-05-14T05:26:26;100656.91;;;13.23;71.46
37694;BME280;23531;50.122;8.644;2023-05-14T05:28:29;100663.09;;;13.30;71.15
37694;BME280;23531;50.122;8.644;2023-05-14T05:30:30;100660.34;;;13.36;71.15
37694;BME280;23531;50.122;8.644;2023-05-14T05:32:31;100656.41;;;13.32;71.12
37694;BME280;23531;50.122;8.644;2023-05-14T05:34:32;100655.22;;;13.28;71.58
37694;BME280;23531;50.122;8.644;2023-05-14T05:36:34;100656.50;;;13.44;71.00
37694;BME280;23531;50.122;8.644;2023-05-14T05:38:35;100659.00;;;13.45;70.98
37694;BME280;23531;50.122;8.644;2023-05-14T05:40:36;100665.00;;;13.48;70.75
37694;BME280;23531;50.122;8.644;2023-05-14T05:42:38;100664.03;;;13.60;70.35
37694;BME280;23531;50.122;8.644;2023-05-14T05:44:40;100664.94;;;13.54;70.37
37694;BME280;23531;50.122;8.644;2023-05-14T05:46:42;100654.09;;;13.11;71.07
37694;BME280;23531;50.122;8.644;2023-05-14T05:48:43;100654.91;;;13.18;71.40
37694;BME280;23531;50.122;8.644;2023-05-14T05:50:45;100653.28;;;13.35;71.46
37694;BME280;23531;50.122;8.644;2023-05-14T05:52:47;100654.94;;;13.55;70.96
37694;BME280;23531;50.122;8.644;2023-05-14T05:54:48;100655.28;;;13.65;70.57
37694;BME280;23531;50.122;8.644;2023-05-14T05:56:49;100650.19;;;13.75;70.37
37694;BME280;23531;50.122;8.644;2023-05-14T05:58:50;100659.03;;;13.64;70.13
37694;BME280;23531;50.122;8.644;2023-05-14T06:00:53;100654.28;;;13.59;70.38
37694;BME280;23531;50.122;8.644;2023-05-14T06:02:56;100655.78;;;13.55;70.47
37694;BME280;23531;50.122;8.644;2023-05-14T06:04:57;100650.59;;;13.90;70.45
37694;BME280;23531;50.122;8.644;2023-05-14T06:06:59;100649.25;;;13.81;69.38
37694;BME280;23531;50.122;8.644;2023-05-14T06:09:00;100650.94;;;13.64;70.09
37694;BME280;23531;50.122;8.644;2023-05-14T06:11:01;100648.13;;;13.70;70.52
37694;BME280;23531;50.122;8.644;2023-05-14T06:13:03;100653.09;;;13.73;69.89
37694;BME280;23531;50.122;8.644;2023-05-14T06:15:04;100654.34;;;13.89;70.03
37694;BME280;23531;50.122;8.644;2023-05-14T06:17:07;100658.56;;;14.03;69.42
37694;BME280;23531;50.122;8.644;2023-05-14T06:19:09;100662.06;;;14.22;68.91
37694;BME280;23531;50.122;8.644;2023-05-14T06:21:10;100661.06;;;14.35;68.79
37694;BME280;23531;50.122;8.644;2023-05-14T06:23:11;100656.09;;;14.50;68.35
37694;BME280;23531;50.122;8.644;2023-05-14T06:25:12;100660.00;;;14.54;67.80
37694;BME280;23531;50.122;8.644;2023-05-14T06:27:14;100647.78;;;14.63;67.58
37694;BME280;23531;50.122;8.644;2023-05-14T06:29:15;100647.59;;;14.76;67.26
37694;BME280;23531;50.122;8.644;2023-05-14T06:31:16;100650.91;;;14.78;66.72
37694;BME280;23531;50.122;8.644;2023-05-14T06:33:19;100656.31;;;14.78;66.80
37694;BME280;23531;50.122;8.644;2023-05-14T06:35:28;100653.91;;;14.70;66.76
37694;BME280;23531;50.122;8.644;2023-05-14T06:37:29;100655.69;;;14.65;66.94
37694;BME280;23531;50.122;8.644;2023-05-14T06:39:30;100659.22;;;14.65;67.13
37694;BME280;23531;50.122;8.644;2023-05-14T06:41:32;100653.91;;;14.70;66.68
37694;BME280;23531;50.122;8.644;2023-05-14T06:43:33;100653.66;;;14.60;66.01
37694;BME280;23531;50.122;8.644;2023-05-14T06:45:34;100651.09;;;14.65;66.10
37694;BME280;23531;50.122;8.644;2023-05-14T06:47:36;100662.03;;;14.70;65.90
37694;BME280;23531;50.122;8.644;2023-05-14T06:49:38;100659.53;;;14.57;65.92
37694;BME280;23531;50.122;8.644;2023-05-14T06:51:39;100655.94;;;14.45;65.91
37694;BME280;23531;50.122;8.644;2023-05-14T06:53:41;100658.81;;;14.50;66.38
37694;BME280;23531;50.122;8.644;2023-05-14T06:55:42;100656.50;;;14.65;66.31
37694;BME280;23531;50.122;8.644;2023-05-14T06:57:44;100651.69;;;14.79;66.21
37694;BME280;23531;50.122;8.644;2023-05-14T06:59:45;100649.72;;;14.86;65.95
37694;BME280;23531;50.122;8.644;2023-05-14T07:01:46;100649.00;;;14.90;65.77
37694;BME280;23531;50.122;8.644;2023-05-14T07:03:47;100645.63;;;14.95;65.37
37694;BME280;23531;50.122;8.644;2023-05-14T07:05:50;100652.47;;;14.98;65.31
37694;BME280;23531;50.122;8.644;2023-05-14T07:07:51;100649.13;;;14.84;65.02
37694;BME280;23531;50.122;8.644;2023-05-14T07:09:52;100650.16;;;14.71;66.00
37694;BME280;23531;50.122;8.644;2023-05-14T07:11:53;100641.25;;;14.82;66.06
37694;BME280;23531;50.122;8.644;2023-05-14T07:13:55;100649.41;;;15.06;65.92
37694;BME280;23531;50.122;8.644;2023-05-14T07:15:56;100647.44;;;15.59;64.61
37694;BME280;23531;50.122;8.644;2023-05-14T07:17:57;100636.41;;;16.29;62.39
37694;BME280;23531;50.122;8.644;2023-05-14T07:19:58;100631.69;;;16.98;57.90
37694;BME280;23531;50.122;8.644;2023-05-14T07:22:01;100631.22;;;17.57;57.96
37694;BME280;23531;50.122;8.644;2023-05-14T07:24:02;100623.59;;;17.97;55.19
37694;BME280;23531;50.122;8.644;2023-05-14T07:26:04;100628.28;;;18.50;53.52
37694;BME280;23531;50.122;8.644;2023-05-14T07:28:05;100623.56;;;18.68;51.74
37694;BME280;23531;50.122;8.644;2023-05-14T07:30:07;100621.66;;;18.68;51.83
37694;BME280;23531;50.122;8.644;2023-05-14T07:32:08;100621.03;;;19.25;52.50
37694;BME280;23531;50.122;8.644;2023-05-14T07:34:09;100617.56;;;19.87;49.84
37694;BME280;23531;50.122;8.644;2023-05-14T07:36:11;100612.78;;;20.19;49.46
37694;BME280;23531;50.122;8.644;2023-05-14T07:38:14;100607.19;;;20.77;48.97
37694;BME280;23531;50.122;8.644;2023-05-14T07:40:16;100606.63;;;21.10;47.34
37694;BME280;23531;50.122;8.644;2023-05-14T07:42:17;100614.81;;;21.00;45.07
37694;BME280;23531;50.122;8.644;2023-05-14T07:44:18;100603.06;;;20.64;45.81
37694;BME280;23531;50.122;8.644;2023-05-14T07:46:19;100600.03;;;21.16;46.20
37694;BME280;23531;50.122;8.644;2023-05-14T07:48:20;100603.81;;;21.51;45.61
37694;BME280;23531;50.122;8.644;2023-05-14T07:50:22;100595.28;;;21.72;44.47
37694;BME280;23531;50.122;8.644;2023-05-14T07:52:23;100602.66;;;21.77;45.00
37694;BME280;23531;50.122;8.644;2023-05-14T07:54:26;100601.22;;;22.00;44.08
37694;BME280;23531;50.122;8.644;2023-05-14T07:56:27;100596.78;;;22.04;44.27
37694;BME280;23531;50.122;8.644;2023-05-14T07:58:28;100597.81;;;22.18;43.63
37694;BME280;23531;50.122;8.644;2023-05-14T08:00:29;100590.44;;;22.14;43.25
37694;BME280;23531;50.122;8.644;2023-05-14T08:02:31;64050.78;;;-142.95;100.00
37694;BME280;23531;50.122;8.644;2023-05-14T08:04:32;64050.78;;;-142.95;100.00
37694;BME280;23531;50.122;8.644;2023-05-14T08:06:34;64050.78;;;-142.95;100.00
37694;BME280;23531;50.122;8.644;2023-05-14T08:08:36;64050.78;;;-142.95;100.00
37694;BME280;23531;50.122;8.644;2023-05-14T08:10:38;64050.78;;;-142.95;100.00
37694;BME280;23531;50.122;8.644;2023-05-14T08:12:39;64050.78;;;-142.95;100.00
37694;BME280;23531;50.122;8.644;2023-05-14T08:14:41;64050.78;;;-142.95;100.00
37694;BME280;23531;50.122;8.644;2023-05-14T08:16:43;64050.78;;;-142.95;100.00
37694;BME280;23531;50.122;8.644;2023-05-14T08:18:44;64050.78;;;-142.95;100.00
37694;BME280;23531;50.122;8.644;2023-05-14T08:20:45;64050.78;;;-142.95;100.00
37694;BME280;23531;50.122;8.644;2023-05-14T08:22:47;64050.78;;;-142.95;100.00
37694;BME280;23531;50.122;8.644;2023-05-14T08:24:48;64050.78;;;-142.95;100.00
37694;BME280;23531;50.122;8.644;2023-05-14T08:26:51;64050.78;;;-142.95;100.00
37694;BME280;23531;50.122;8.644;2023-05-14T08:28:52;64050.78;;;-142.95;100.00
37694;BME280;23531;50.122;8.644;2023-05-14T08:30:53;64050.78;;;-142.95;100.00
37694;BME280;23531;50.122;8.644;2023-05-14T08:32:54;64050.78;;;-142.95;100.00
37694;BME280;23531;50.122;8.644;2023-05-14T08:34:56;64050.78;;;-142.95;100.00
37694;BME280;23531;50.122;8.644;2023-05-14T08:36:57;64050.78;;;-142.95;100.00
37694;BME280;23531;50.122;8.644;2023-05-14T08:38:58;64050.78;;;-142.95;100.00
37694;BME280;23531;50.122;8.644;2023-05-14T08:41:00;64050.78;;;-142.95;100.00
37694;BME280;23531;50.122;8.644;2023-05-14T08:43:02;64050.78;;;-142.95;100.00
37694;BME280;23531;50.122;8.644;2023-05-14T08:45:05;64050.78;;;-142.95;100.00
37694;BME280;23531;50.122;8.644;2023-05-14T08:47:08;64050.78;;;-142.95;100.00
37694;BME280;23531;50.122;8.644;2023-05-14T08:49:14;64050.78;;;-142.95;100.00
37694;BME280;23531;50.122;8.644;2023-05-14T08:51:17;64050.78;;;-142.95;100.00
37694;BME280;23531;50.122;8.644;2023-05-14T08:53:19;64050.78;;;-142.95;100.00
37694;BME280;23531;50.122;8.644;2023-05-14T08:55:20;64050.78;;;-142.95;100.00
37694;BME280;23531;50.122;8.644;2023-05-14T08:57:22;64050.78;;;-142.95;100.00
37694;BME280;23531;50.122;8.644;2023-05-14T08:59:26;64050.78;;;-142.95;100.00
37694;BME280;23531;50.122;8.644;2023-05-14T09:01:28;64050.78;;;-142.95;100.00
37694;BME280;23531;50.122;8.644;2023-05-14T09:03:29;64050.78;;;-142.95;100.00
37694;BME280;23531;50.122;8.644;2023-05-14T09:05:30;64050.78;;;-142.95;100.00
37694;BME280;23531;50.122;8.644;2023-05-14T09:07:32;64050.78;;;-142.95;100.00
37694;BME280;23531;50.122;8.644;2023-05-14T09:09:33;64050.78;;;-142.95;100.00
37694;BME280;23531;50.122;8.644;2023-05-14T09:11:39;64050.78;;;-142.95;100.00
37694;BME280;23531;50.122;8.644;2023-05-14T09:13:40;64050.78;;;-142.95;100.00
37694;BME280;23531;50.122;8.644;2023-05-14T09:15:43;64050.78;;;-142.95;100.00
37694;BME280;23531;50.122;8.644;2023-05-14T09:17:45;64050.78;;;-142.95;100.00
37694;BME280;23531;50.122;8.644;2023-05-14T09:19:47;64050.78;;;-142.95;100.00
37694;BME280;23531;50.122;8.644;2023-05-14T09:21:54;64050.78;;;-142.95;100.00
37694;BME280;23531;50.122;8.644;2023-05-14T09:23:57;64050.78;;;-142.95;100.00
37694;BME280;23531;50.122;8.644;2023-05-14T09:26:02;64050.78;;;-142.95;100.00
37694;BME280;23531;50.122;8.644;2023-05-14T09:28:04;64050.78;;;-142.95;100.00
37694;BME280;23531;50.122;8.644;2023-05-14T09:30:06;64050.78;;;-142.95;100.00
37694;BME280;23531;50.122;8.644;2023-05-14T09:32:09;64050.78;;;-142.95;100.00
37694;BME280;23531;50.122;8.644;2023-05-14T09:34:10;64050.78;;;-142.95;100.00
37694;BME280;23531;50.122;8.644;2023-05-14T09:36:12;64050.78;;;-142.95;100.00
37694;BME280;23531;50.122;8.644;2023-05-14T09:38:13;64050.78;;;-142.95;100.00
37694;BME280;23531;50.122;8.644;2023-05-14T09:40:15;64050.78;;;-142.95;100.00
37694;BME280;23531;50.122;8.644;2023-05-14T09:42:17;64050.78;;;-142.95;100.00
37694;BME280;23531;50.122;8.644;2023-05-14T09:44:19;64050.78;;;-142.95;100.00
37694;BME280;23531;50.122;8.644;2023-05-14T09:46:20;64050.78;;;-142.95;100.00
37694;BME280;23531;50.122;8.644;2023-05-14T09:48:24;64050.78;;;-142.95;100.00
37694;BME280;23531;50.122;8.644;2023-05-14T09:50:25;64050.78;;;-142.95;100.00
37694;BME280;23531;50.122;8.644;2023-05-14T09:52:26;64050.78;;;-142.95;100.00
37694;BME280;23531;50.122;8.644;2023-05-14T09:54:27;64050.78;;;-142.95;100.00
37694;BME280;23531;50.122;8.644;2023-05-14T09:56:29;64050.78;;;-142.95;100.00
37694;BME280;23531;50.122;8.644;2023-05-14T09:58:30;64050.78;;;-142.95;100.00
37694;BME280;23531;50.122;8.644;2023-05-14T10:00:32;64050.78;;;-142.95;100.00
37694;BME280;23531;50.122;8.644;2023-05-14T10:02:34;64050.78;;;-142.95;100.00
37694;BME280;23531;50.122;8.644;2023-05-14T10:04:38;64050.78;;;-142.95;100.00
37694;BME280;23531;50.122;8.644;2023-05-14T10:06:39;64050.78;;;-142.95;100.00
37694;BME280;23531;50.122;8.644;2023-05-14T10:08:42;64050.78;;;-142.95;100.00
37694;BME280;23531;50.122;8.644;2023-05-14T10:10:44;64050.78;;;-142.95;100.00
37694;BME280;23531;50.122;8.644;2023-05-14T10:12:46;64050.78;;;-142.95;100.00
37694;BME280;23531;50.122;8.644;2023-05-14T10:14:50;64050.78;;;-142.95;100.00
37694;BME280;23531;50.122;8.644;2023-05-14T10:16:53;64050.78;;;-142.95;100.00
37694;BME280;23531;50.122;8.644;2023-05-14T10:18:58;64050.78;;;-142.95;100.00
37694;BME280;23531;50.122;8.644;2023-05-14T10:21:03;64050.78;;;-142.95;100.00
37694;BME280;23531;50.122;8.644;2023-05-14T10:23:05;64050.78;;;-142.95;100.00
37694;BME280;23531;50.122;8.644;2023-05-14T10:25:06;64050.78;;;-142.95;100.00
37694;BME280;23531;50.122;8.644;2023-05-14T10:27:08;64050.78;;;-142.95;100.00
37694;BME280;23531;50.122;8.644;2023-05-14T10:29:10;64050.78;;;-142.95;100.00
37694;BME280;23531;50.122;8.644;2023-05-14T10:31:12;64050.78;;;-142.95;100.00
37694;BME280;23531;50.122;8.644;2023-05-14T10:33:13;64050.78;;;-142.95;100.00
37694;BME280;23531;50.122;8.644;2023-05-14T10:35:16;64050.78;;;-142.95;100.00
37694;BME280;23531;50.122;8.644;2023-05-14T10:37:22;64050.78;;;-142.95;100.00
37694;BME280;23531;50.122;8.644;2023-05-14T10:39:26;64050.78;;;-142.95;100.00
37694;BME280;23531;50.122;8.644;2023-05-14T10:41:39;64050.78;;;-142.95;100.00
37694;BME280;23531;50.122;8.644;2023-05-14T10:43:41;64050.78;;;-142.95;100.00
37694;BME280;23531;50.122;8.644;2023-05-14T10:45:43;64050.78;;;-142.95;100.00